Time;durP1;ratioP1;P1;durP2;ratioP2;P2;SDS_P1;SDS_P2;PMS_P1;PMS_P2;Temp;Humidity;BMP_temperature;BMP_pressure;BME280_temperature;BME280_humidity;BME280_pressure;Samples;Min_cycle;Max_cycle;Signal;HPM_P1;HPM_P2
2024/01/12 00:00:30;;;;;;;9.15;2.83;;;2.30;99.90;;;;;;4914926;29;20488;-74
2024/01/12 00:02:56;;;;;;;7.00;1.38;;;2.30;99.90;;;;;;4915141;29;20052;-74
2024/01/12 00:05:22;;;;;;;9.07;1.67;;;2.20;99.90;;;;;;4897825;29;20044;-77
2024/01/12 00:07:47;;;;;;;7.45;1.45;;;2.20;99.90;;;;;;4914504;29;20048;-74
2024/01/12 00:10:13;;;;;;;9.82;1.92;;;2.10;99.90;;;;;;4897704;29;20142;-74
2024/01/12 00:12:39;;;;;;;6.95;1.67;;;2.10;99.90;;;;;;4914486;29;20067;-77
2024/01/12 00:15:05;;;;;;;11.07;1.90;;;2.10;99.90;;;;;;4915189;29;20061;-74
2024/01/12 00:17:32;;;;;;;10.75;1.75;;;2.10;99.90;;;;;;4914814;29;20396;-73
2024/01/12 00:19:58;;;;;;;15.05;2.88;;;2.10;99.90;;;;;;4914851;29;20508;-73
2024/01/12 00:22:23;;;;;;;10.77;1.63;;;2.10;99.90;;;;;;4914821;29;20053;-74
2024/01/12 00:24:49;;;;;;;9.82;1.80;;;2.10;99.90;;;;;;4898270;29;20056;-77
2024/01/12 00:27:15;;;;;;;12.50;3.45;;;2.10;99.90;;;;;;4915010;29;20734;-78
2024/01/12 00:29:41;;;;;;;6.40;1.77;;;2.10;99.90;;;;;;4898497;29;20052;-74
2024/01/12 00:32:06;;;;;;;7.70;1.42;;;2.10;99.90;;;;;;4915807;29;20059;-77
2024/01/12 00:34:33;;;;;;;15.02;3.25;;;2.10;99.90;;;;;;4914271;29;20051;-74
2024/01/12 00:36:59;;;;;;;8.25;1.88;;;2.20;99.90;;;;;;4897725;29;20044;-84
2024/01/12 00:39:25;;;;;;;7.78;1.80;;;2.10;99.90;;;;;;4917910;29;20174;-75
2024/01/12 00:41:52;;;;;;;10.85;2.33;;;2.10;99.90;;;;;;4901354;29;20131;-83
2024/01/12 00:44:18;;;;;;;10.40;2.08;;;2.20;99.90;;;;;;4918215;29;20060;-83
2024/01/12 00:46:45;;;;;;;13.57;2.08;;;2.10;99.90;;;;;;4903131;29;20048;-84
2024/01/12 00:49:11;;;;;;;11.68;2.40;;;2.10;99.90;;;;;;4920119;29;20112;-83
2024/01/12 00:51:37;;;;;;;13.95;2.00;;;2.10;99.90;;;;;;4900821;29;20079;-80
2024/01/12 00:54:03;;;;;;;14.30;3.30;;;2.10;99.90;;;;;;4918329;29;20052;-78
2024/01/12 00:56:29;;;;;;;11.07;3.08;;;2.10;99.90;;;;;;4917958;29;20131;-76
2024/01/12 00:58:55;;;;;;;13.13;2.80;;;2.10;99.90;;;;;;4918005;29;20742;-75
2024/01/12 01:01:22;;;;;;;10.13;2.53;;;2.10;99.90;;;;;;4885584;29;20060;-75
2024/01/12 01:03:48;;;;;;;10.23;2.65;;;2.10;99.90;;;;;;4901054;29;20057;-83
2024/01/12 01:06:14;;;;;;;10.57;2.50;;;2.10;99.90;;;;;;4919099;29;20059;-84
2024/01/12 01:08:40;;;;;;;15.80;2.30;;;2.10;99.90;;;;;;4920669;29;20052;-75
2024/01/12 01:11:05;;;;;;;20.17;2.33;;;2.20;99.90;;;;;;4917356;29;20060;-74
2024/01/12 01:13:32;;;;;;;17.50;2.03;;;2.20;99.90;;;;;;4900676;29;20062;-75
2024/01/12 01:15:58;;;;;;;7.82;1.60;;;2.40;99.90;;;;;;4900523;29;20059;-84
2024/01/12 01:18:23;;;;;;;17.65;2.35;;;2.30;99.90;;;;;;4918290;29;20048;-75
2024/01/12 01:20:49;;;;;;;11.50;1.67;;;2.40;99.90;;;;;;4901814;29;20094;-82
2024/01/12 01:23:15;;;;;;;8.18;1.50;;;2.50;99.90;;;;;;4918221;29;20052;-75
2024/01/12 01:25:41;;;;;;;8.60;1.45;;;2.60;99.90;;;;;;4902141;29;20143;-84
2024/01/12 01:28:06;;;;;;;9.15;1.33;;;2.60;99.90;;;;;;4901312;29;20151;-75
2024/01/12 01:30:32;;;;;;;9.55;1.63;;;2.60;99.90;;;;;;4900978;29;20055;-82
2024/01/12 01:32:58;;;;;;;19.48;2.40;;;2.70;99.90;;;;;;4906025;29;20083;-84
2024/01/12 01:35:24;;;;;;;4.68;2.03;;;2.60;99.90;;;;;;4925116;29;20052;-83
2024/01/12 01:37:50;;;;;;;10.40;1.95;;;2.60;99.90;;;;;;4902917;29;20083;-75
2024/01/12 01:40:16;;;;;;;9.90;1.67;;;2.50;99.90;;;;;;4903820;29;20484;-74
2024/01/12 01:42:45;;;;;;;8.68;1.70;;;2.40;99.90;;;;;;4923675;29;20199;-84
2024/01/12 01:45:11;;;;;;;14.02;2.10;;;2.30;99.90;;;;;;4923274;29;20055;-78
2024/01/12 01:47:36;;;;;;;8.77;2.17;;;2.30;99.90;;;;;;4921791;29;20090;-81
2024/01/12 01:50:03;;;;;;;12.82;1.88;;;2.20;99.90;;;;;;4902139;29;20439;-77
2024/01/12 01:52:29;;;;;;;10.40;2.38;;;2.20;99.90;;;;;;4919596;29;20060;-74
2024/01/12 01:54:57;;;;;;;9.00;2.40;;;2.30;99.90;;;;;;4903205;29;20056;-83
2024/01/12 01:57:26;;;;;;;13.63;2.55;;;2.30;99.90;;;;;;4900225;29;20481;-85
2024/01/12 01:59:52;;;;;;;22.75;3.65;;;2.20;99.90;;;;;;4917440;29;20047;-84
2024/01/12 02:02:18;;;;;;;18.27;2.95;;;2.20;99.90;;;;;;4917001;29;20382;-84
2024/01/12 02:04:44;;;;;;;15.43;3.10;;;2.10;99.90;;;;;;4917008;29;20056;-84
2024/01/12 02:07:09;;;;;;;17.17;2.53;;;2.10;99.90;;;;;;4899587;29;20473;-84
2024/01/12 02:09:35;;;;;;;16.02;2.75;;;1.90;99.90;;;;;;4916838;29;20441;-85
2024/01/12 02:12:04;;;;;;;20.30;3.08;;;1.90;99.90;;;;;;4916466;29;20528;-84
2024/01/12 02:14:30;;;;;;;20.95;3.60;;;1.80;99.90;;;;;;4899297;29;20143;-85
2024/01/12 02:16:56;;;;;;;14.43;3.03;;;1.70;99.90;;;;;;4916378;29;20068;-84
2024/01/12 02:19:22;;;;;;;15.85;3.03;;;1.60;99.90;;;;;;4917183;29;20070;-83
2024/01/12 02:21:47;;;;;;;19.83;3.40;;;1.60;99.90;;;;;;4916524;29;20532;-82
2024/01/12 02:24:13;;;;;;;14.35;3.30;;;1.50;99.90;;;;;;4899267;29;20405;-83
2024/01/12 02:26:39;;;;;;;21.05;3.50;;;1.40;99.90;;;;;;4899573;29;20107;-83
2024/01/12 02:29:05;;;;;;;16.40;3.88;;;1.30;99.90;;;;;;4916396;29;20119;-84
2024/01/12 02:31:31;;;;;;;9.18;2.70;;;1.30;99.90;;;;;;4916359;29;20063;-76
2024/01/12 02:33:56;;;;;;;18.88;3.47;;;1.30;99.90;;;;;;4899166;29;20056;-78
2024/01/12 02:36:26;;;;;;;11.98;3.22;;;1.10;99.90;;;;;;4899543;29;20052;-79
2024/01/12 02:38:52;;;;;;;17.50;3.80;;;1.00;99.90;;;;;;4899298;29;20040;-74
2024/01/12 02:41:18;;;;;;;19.98;3.03;;;0.90;99.90;;;;;;4916149;29;20199;-75
2024/01/12 02:43:44;;;;;;;8.40;2.30;;;0.90;99.90;;;;;;4916093;29;20056;-77
2024/01/12 02:46:10;;;;;;;19.17;3.78;;;0.80;99.90;;;;;;4916046;29;20052;-83
2024/01/12 02:48:35;;;;;;;9.82;2.60;;;0.70;99.90;;;;;;4916219;29;20052;-83
2024/01/12 02:51:01;;;;;;;9.32;2.10;;;0.60;99.90;;;;;;4898680;29;20377;-81
2024/01/12 02:53:27;;;;;;;12.02;3.08;;;0.60;99.90;;;;;;4898720;29;20142;-81
2024/01/12 02:55:52;;;;;;;31.80;4.18;;;0.40;99.90;;;;;;4915740;29;20059;-84
2024/01/12 02:58:18;;;;;;;24.45;3.33;;;0.40;99.90;;;;;;4915791;29;20044;-84
2024/01/12 03:00:44;;;;;;;15.35;3.55;;;0.40;99.90;;;;;;4915503;29;20139;-74
2024/01/12 03:03:10;;;;;;;14.73;2.90;;;0.40;99.90;;;;;;4915442;29;20779;-75
2024/01/12 03:05:36;;;;;;;15.38;2.97;;;0.40;99.90;;;;;;4915894;29;20074;-82
2024/01/12 03:08:01;;;;;;;14.30;2.67;;;0.30;99.90;;;;;;4898757;29;20463;-76
2024/01/12 03:10:27;;;;;;;13.73;3.00;;;0.30;99.90;;;;;;4915540;29;20067;-75
2024/01/12 03:12:53;;;;;;;9.57;2.80;;;0.30;99.90;;;;;;4915108;29;20048;-81
2024/01/12 03:15:19;;;;;;;28.23;4.45;;;0.30;99.90;;;;;;4899122;29;20056;-84
2024/01/12 03:17:45;;;;;;;10.48;2.38;;;0.30;99.90;;;;;;4915538;29;20051;-79
2024/01/12 03:20:10;;;;;;;12.98;2.92;;;0.40;99.90;;;;;;4898418;29;20509;-73
2024/01/12 03:22:36;;;;;;;20.48;2.75;;;0.50;99.90;;;;;;4898515;29;20075;-78
2024/01/12 03:25:03;;;;;;;15.15;3.30;;;0.50;99.90;;;;;;4915666;29;20055;-84
2024/01/12 03:27:28;;;;;;;16.80;3.30;;;0.60;99.90;;;;;;4898003;29;20091;-75
2024/01/12 03:29:55;;;;;;;18.25;4.07;;;0.80;99.90;;;;;;4898568;29;20080;-85
2024/01/12 03:32:21;;;;;;;18.05;4.55;;;0.90;99.90;;;;;;4915579;29;20084;-74
2024/01/12 03:34:47;;;;;;;19.63;4.78;;;1.00;99.90;;;;;;4915397;29;20056;-73
2024/01/12 03:37:13;;;;;;;21.58;4.00;;;1.10;99.90;;;;;;4915037;29;20385;-73
2024/01/12 03:39:39;;;;;;;18.45;3.67;;;1.10;99.90;;;;;;4897914;29;20056;-84
2024/01/12 03:42:05;;;;;;;26.75;4.45;;;1.20;99.90;;;;;;4915204;29;20411;-76
2024/01/12 03:44:31;;;;;;;17.65;3.58;;;1.20;99.90;;;;;;4898222;29;20066;-79
2024/01/12 03:46:56;;;;;;;18.58;6.22;;;1.20;99.90;;;;;;4915025;29;20131;-73
2024/01/12 03:49:22;;;;;;;18.25;4.90;;;1.30;99.90;;;;;;4898260;29;20060;-79
2024/01/12 03:51:53;;;;;;;22.65;4.57;;;1.30;99.90;;;;;;4915070;29;20096;-79
2024/01/12 03:54:24;;;;;;;12.90;3.58;;;1.30;99.90;;;;;;4914836;29;20052;-74
2024/01/12 03:56:50;;;;;;;19.33;4.72;;;1.30;99.90;;;;;;4915026;29;20374;-82
2024/01/12 03:59:16;;;;;;;21.80;4.18;;;1.30;99.90;;;;;;4898088;29;20052;-73
2024/01/12 04:01:46;;;;;;;17.85;3.97;;;1.30;99.90;;;;;;4915019;29;20052;-75
2024/01/12 04:04:12;;;;;;;17.77;4.40;;;1.30;99.90;;;;;;4897628;29;20060;-73
2024/01/12 04:06:40;;;;;;;22.30;4.97;;;1.40;99.90;;;;;;4914848;29;20523;-83
2024/01/12 04:09:06;;;;;;;21.60;4.60;;;1.40;99.90;;;;;;4915205;29;20056;-81
2024/01/12 04:11:32;;;;;;;15.80;4.55;;;1.40;99.90;;;;;;4897779;29;20052;-75
2024/01/12 04:13:57;;;;;;;15.35;4.68;;;1.40;99.90;;;;;;4900625;29;20048;-84
2024/01/12 04:16:23;;;;;;;18.55;4.18;;;1.40;99.90;;;;;;4901505;29;20044;-74
2024/01/12 04:18:49;;;;;;;14.23;4.45;;;1.50;99.90;;;;;;4918813;29;20496;-74
2024/01/12 04:21:14;;;;;;;11.85;4.57;;;1.50;99.90;;;;;;4918747;29;20049;-74
2024/01/12 04:23:40;;;;;;;16.77;4.30;;;1.50;99.90;;;;;;4918520;29;20378;-74
2024/01/12 04:26:06;;;;;;;37.58;4.68;;;1.60;99.90;;;;;;4901724;29;20079;-82
2024/01/12 04:28:33;;;;;;;21.98;5.47;;;1.60;99.90;;;;;;4919131;29;20048;-73
2024/01/12 04:31:01;;;;;;;27.48;5.35;;;1.60;99.90;;;;;;4918294;29;20594;-77
2024/01/12 04:33:27;;;;;;;15.55;4.63;;;1.70;99.90;;;;;;4901383;29;20067;-74
2024/01/12 04:35:52;;;;;;;18.65;4.93;;;1.70;99.90;;;;;;4901336;29;20056;-74
2024/01/12 04:38:19;;;;;;;23.13;5.47;;;1.70;99.90;;;;;;4918243;29;20062;-74
2024/01/12 04:40:45;;;;;;;23.65;5.82;;;1.70;99.90;;;;;;4918172;29;20214;-74
2024/01/12 04:43:11;;;;;;;20.38;4.82;;;1.80;99.90;;;;;;4885816;29;20616;-77
2024/01/12 04:45:36;;;;;;;25.15;5.45;;;1.80;99.90;;;;;;4918078;29;20079;-80
2024/01/12 04:48:02;;;;;;;40.78;6.90;;;1.80;99.90;;;;;;4901101;29;20101;-75
2024/01/12 04:50:28;;;;;;;22.80;5.22;;;1.80;99.90;;;;;;4918280;29;20055;-77
2024/01/12 04:52:54;;;;;;;26.60;5.65;;;1.80;99.90;;;;;;4918014;29;20056;-79
2024/01/12 04:55:20;;;;;;;23.95;5.57;;;1.70;99.90;;;;;;4900809;29;20581;-80
2024/01/12 04:57:46;;;;;;;33.00;5.40;;;1.80;99.90;;;;;;4901034;29;20052;-78
2024/01/12 05:00:12;;;;;;;24.65;5.38;;;1.80;99.90;;;;;;4917639;29;20074;-80
2024/01/12 05:02:38;;;;;;;29.17;5.15;;;1.80;99.90;;;;;;4901062;29;20107;-84
2024/01/12 05:05:05;;;;;;;38.05;6.95;;;1.90;99.90;;;;;;4901013;29;20052;-73
2024/01/12 05:07:31;;;;;;;33.08;5.78;;;2.10;99.90;;;;;;4918131;29;20143;-82
2024/01/12 05:09:56;;;;;;;28.25;5.38;;;2.20;99.90;;;;;;4917999;29;20127;-76
2024/01/12 05:12:22;;;;;;;28.27;4.82;;;2.30;99.90;;;;;;4917272;29;20063;-79
2024/01/12 05:14:48;;;;;;;25.02;5.03;;;2.40;99.90;;;;;;4900416;29;20146;-74
2024/01/12 05:17:14;;;;;;;31.02;4.90;;;2.50;99.90;;;;;;4885254;29;20044;-75
2024/01/12 05:19:40;;;;;;;23.83;5.05;;;2.60;99.90;;;;;;4917652;29;20044;-84
2024/01/12 05:22:07;;;;;;;34.03;4.93;;;2.70;99.90;;;;;;4900425;29;20083;-83
2024/01/12 05:24:33;;;;;;;31.33;6.57;;;2.70;99.90;;;;;;4918219;29;20044;-77
2024/01/12 05:26:59;;;;;;;30.35;6.10;;;2.70;99.90;;;;;;4917549;29;20059;-79
2024/01/12 05:29:25;;;;;;;26.85;4.50;;;2.80;99.90;;;;;;4917439;29;20127;-77
2024/01/12 05:31:51;;;;;;;23.50;3.85;;;2.90;99.90;;;;;;4917296;29;20063;-76
2024/01/12 05:34:16;;;;;;;24.88;4.75;;;3.00;99.90;;;;;;4917312;29;20139;-77
2024/01/12 05:36:42;;;;;;;25.35;5.13;;;3.00;99.90;;;;;;4900087;29;20386;-78
2024/01/12 05:39:08;;;;;;;18.05;3.97;;;3.10;99.90;;;;;;4900498;29;20418;-77
2024/01/12 05:41:34;;;;;;;33.10;5.13;;;3.10;99.90;;;;;;4917374;29;20052;-74
2024/01/12 05:44:00;;;;;;;33.80;5.63;;;3.20;99.90;;;;;;4917075;29;20040;-77
2024/01/12 05:46:26;;;;;;;28.60;3.08;;;3.20;99.90;;;;;;4917436;29;20055;-76
2024/01/12 05:48:52;;;;;;;18.90;3.38;;;3.30;99.90;;;;;;4917615;29;20138;-81
2024/01/12 05:51:17;;;;;;;19.83;3.67;;;3.30;99.90;;;;;;4900027;29;20056;-77
2024/01/12 05:53:44;;;;;;;14.40;3.95;;;3.40;99.90;;;;;;4917052;29;20492;-79
2024/01/12 05:56:10;;;;;;;28.55;4.13;;;3.50;99.90;;;;;;4899864;29;20160;-83
2024/01/12 05:58:36;;;;;;;22.48;3.45;;;3.50;99.90;;;;;;4917330;29;20508;-79
2024/01/12 06:01:01;;;;;;;24.80;3.97;;;3.50;99.90;;;;;;4917122;29;20159;-77
2024/01/12 06:03:30;;;;;;;20.20;3.00;;;3.50;99.90;;;;;;4917174;29;20060;-79
2024/01/12 06:05:56;;;;;;;24.17;3.55;;;3.50;99.90;;;;;;4899912;29;20060;-83
2024/01/12 06:08:21;;;;;;;26.90;3.47;;;3.50;99.90;;;;;;4916810;29;20052;-82
2024/01/12 06:10:47;;;;;;;25.98;3.08;;;3.50;99.90;;;;;;4916278;29;20055;-83
2024/01/12 06:13:13;;;;;;;19.20;3.35;;;3.50;99.90;;;;;;4916751;29;20489;-77
2024/01/12 06:15:39;;;;;;;27.35;4.13;;;3.50;99.90;;;;;;4900127;29;20056;-84
2024/01/12 06:18:05;;;;;;;22.95;3.80;;;3.60;99.90;;;;;;4916866;29;20123;-80
2024/01/12 06:20:31;;;;;;;13.73;3.33;;;3.60;99.90;;;;;;4916717;29;20059;-80
2024/01/12 06:22:56;;;;;;;28.42;2.90;;;3.60;99.90;;;;;;4916090;29;20056;-79
2024/01/12 06:25:23;;;;;;;19.58;3.78;;;3.60;99.90;;;;;;4916472;29;20058;-82
2024/01/12 06:27:49;;;;;;;23.85;3.05;;;3.70;99.90;;;;;;4899676;29;20253;-84
2024/01/12 06:30:16;;;;;;;16.40;2.53;;;3.80;99.90;;;;;;4916419;29;20052;-79
2024/01/12 06:32:42;;;;;;;17.05;3.25;;;3.90;99.90;;;;;;4915997;29;20500;-83
2024/01/12 06:35:10;;;;;;;12.25;2.90;;;3.90;99.90;;;;;;4916265;29;20467;-84
2024/01/12 06:37:35;;;;;;;18.23;2.83;;;3.90;99.90;;;;;;4898885;29;20175;-83
2024/01/12 06:40:01;;;;;;;16.67;2.90;;;4.00;99.90;;;;;;4916412;29;20123;-84
2024/01/12 06:42:28;;;;;;;14.90;2.67;;;4.00;99.90;;;;;;4915826;29;20495;-79
2024/01/12 06:44:54;;;;;;;21.88;3.20;;;4.00;99.90;;;;;;4916019;29;20615;-81
2024/01/12 06:47:20;;;;;;;17.10;2.95;;;4.00;99.90;;;;;;4916248;29;20440;-83
2024/01/12 06:49:46;;;;;;;17.33;4.68;;;4.00;99.90;;;;;;4916166;29;20131;-85
2024/01/12 06:52:12;;;;;;;15.10;2.40;;;3.90;99.90;;;;;;4916011;29;20461;-84
2024/01/12 06:54:44;;;;;;;22.80;4.30;;;4.00;99.90;;;;;;4915762;29;20051;-80
2024/01/12 06:57:10;;;;;;;21.52;2.72;;;4.00;99.90;;;;;;4899333;29;20485;-83
2024/01/12 06:59:36;;;;;;;12.57;2.97;;;4.00;99.90;;;;;;4916053;29;20591;-79
2024/01/12 07:02:02;;;;;;;13.68;2.95;;;4.00;99.90;;;;;;4899125;29;20160;-80
2024/01/12 07:04:27;;;;;;;17.35;3.25;;;4.00;99.90;;;;;;4916152;29;20091;-81
2024/01/12 07:06:53;;;;;;;18.30;2.75;;;4.10;99.90;;;;;;4915626;29;20052;-80
2024/01/12 07:09:19;;;;;;;11.95;2.60;;;4.00;99.90;;;;;;4898642;29;20059;-76
2024/01/12 07:11:45;;;;;;;17.45;2.95;;;4.00;99.90;;;;;;4915783;29;20055;-81
2024/01/12 07:14:14;;;;;;;12.73;2.70;;;4.10;99.90;;;;;;4898770;29;20055;-78
2024/01/12 07:16:40;;;;;;;18.70;3.20;;;4.10;99.90;;;;;;4915775;29;20056;-84
2024/01/12 07:19:09;;;;;;;12.55;2.72;;;4.10;99.90;;;;;;4899092;29;20567;-83
2024/01/12 07:21:35;;;;;;;15.80;3.70;;;4.10;99.90;;;;;;4915480;29;20044;-80
2024/01/12 07:24:02;;;;;;;25.48;3.08;;;4.10;99.90;;;;;;4915772;29;20099;-82
2024/01/12 07:26:28;;;;;;;15.85;2.80;;;4.10;99.90;;;;;;4898631;29;20056;-75
2024/01/12 07:28:53;;;;;;;18.08;2.65;;;4.10;99.90;;;;;;4898772;29;20147;-83
2024/01/12 07:31:19;;;;;;;13.02;2.33;;;4.10;99.90;;;;;;4899167;29;20469;-82
2024/01/12 07:33:45;;;;;;;13.80;2.65;;;4.10;99.90;;;;;;4915823;29;20040;-74
2024/01/12 07:36:11;;;;;;;21.77;2.47;;;4.10;99.90;;;;;;4898064;29;20079;-76
2024/01/12 07:38:37;;;;;;;31.00;5.15;;;4.10;99.90;;;;;;4898818;29;20408;-75
2024/01/12 07:41:03;;;;;;;19.45;3.78;;;4.20;99.90;;;;;;4898970;29;20048;-76
2024/01/12 07:43:30;;;;;;;25.65;4.97;;;4.20;99.90;;;;;;4882376;29;20048;-74
2024/01/12 07:45:57;;;;;;;30.30;4.43;;;4.30;99.90;;;;;;4915109;29;20142;-74
2024/01/12 07:48:23;;;;;;;24.48;4.05;;;4.30;99.90;;;;;;4897392;29;20051;-74
2024/01/12 07:50:49;;;;;;;15.15;2.45;;;4.40;99.90;;;;;;4915017;29;20056;-75
2024/01/12 07:53:14;;;;;;;16.98;2.78;;;4.30;99.90;;;;;;4898006;29;20040;-75
2024/01/12 07:55:40;;;;;;;23.70;4.13;;;4.30;99.90;;;;;;4915212;29;20135;-85
2024/01/12 07:58:06;;;;;;;24.95;3.60;;;4.30;99.90;;;;;;4915227;29;20052;-80
2024/01/12 08:00:32;;;;;;;20.55;3.47;;;4.30;99.90;;;;;;4914783;29;20516;-78
2024/01/12 08:02:58;;;;;;;29.38;3.83;;;4.30;99.90;;;;;;4897673;29;20048;-75
2024/01/12 08:05:24;;;;;;;28.90;5.57;;;4.30;99.90;;;;;;4898048;29;20131;-76
2024/01/12 08:07:50;;;;;;;27.10;3.90;;;4.30;99.90;;;;;;4914908;29;20059;-78
2024/01/12 08:10:17;;;;;;;20.30;2.50;;;4.40;99.90;;;;;;4914774;29;20048;-75
2024/01/12 08:12:44;;;;;;;17.50;3.20;;;4.50;99.90;;;;;;4914410;29;20060;-77
2024/01/12 08:15:10;;;;;;;14.45;2.40;;;4.50;99.90;;;;;;4915026;29;20059;-84
2024/01/12 08:17:40;;;;;;;24.90;4.32;;;4.50;99.90;;;;;;4898215;29;20718;-78
2024/01/12 08:20:06;;;;;;;12.93;2.03;;;4.50;99.90;;;;;;4914644;29;20054;-85
2024/01/12 08:22:32;;;;;;;18.77;2.88;;;4.50;99.90;;;;;;4897735;29;20087;-77
2024/01/12 08:24:58;;;;;;;19.92;2.88;;;4.50;99.90;;;;;;4914391;29;20084;-75
2024/01/12 08:27:24;;;;;;;16.63;3.55;;;4.50;99.90;;;;;;4914577;29;20052;-80
2024/01/12 08:29:50;;;;;;;18.58;3.17;;;4.50;99.90;;;;;;4915034;29;20068;-85
2024/01/12 08:32:16;;;;;;;10.45;2.47;;;4.50;99.90;;;;;;4898245;29;20131;-83
2024/01/12 08:34:41;;;;;;;19.85;3.53;;;4.50;99.90;;;;;;4897553;29;20102;-81
2024/01/12 08:37:07;;;;;;;16.30;2.22;;;4.50;99.90;;;;;;4914806;29;20103;-77
2024/01/12 08:39:34;;;;;;;13.75;2.10;;;4.50;99.90;;;;;;4914569;29;20110;-75
2024/01/12 08:41:59;;;;;;;17.45;2.08;;;4.50;99.90;;;;;;4914275;29;20056;-73
2024/01/12 08:44:25;;;;;;;14.52;2.47;;;4.60;99.90;;;;;;4914353;29;20059;-75
2024/01/12 08:46:53;;;;;;;15.35;2.28;;;4.60;99.90;;;;;;4914229;29;20056;-74
2024/01/12 08:49:19;;;;;;;20.10;2.20;;;4.50;99.90;;;;;;4881789;29;20048;-74
2024/01/12 08:51:45;;;;;;;9.43;2.00;;;4.60;99.90;;;;;;4915025;29;20191;-77
2024/01/12 08:54:10;;;;;;;24.30;2.95;;;4.60;99.90;;;;;;4914780;29;20552;-76
2024/01/12 08:56:36;;;;;;;13.43;2.83;;;4.60;99.90;;;;;;4914809;29;20084;-75
2024/01/12 08:59:02;;;;;;;14.48;3.60;;;4.60;99.90;;;;;;4915400;29;20052;-74
2024/01/12 09:01:28;;;;;;;13.35;1.92;;;4.60;99.90;;;;;;4917956;29;20102;-73
2024/01/12 09:03:53;;;;;;;13.23;2.47;;;4.60;99.90;;;;;;4917942;29;20052;-73
2024/01/12 09:06:21;;;;;;;17.73;2.50;;;4.60;99.90;;;;;;4900736;29;20579;-75
2024/01/12 09:08:46;;;;;;;15.35;2.75;;;4.60;99.90;;;;;;4900982;29;20108;-78
2024/01/12 09:11:12;;;;;;;20.58;3.05;;;4.60;99.90;;;;;;4901236;29;20508;-82
2024/01/12 09:13:38;;;;;;;19.80;3.13;;;4.60;99.90;;;;;;4918184;29;20056;-74
2024/01/12 09:16:07;;;;;;;33.60;4.78;;;4.60;99.90;;;;;;4900465;29;20056;-76
2024/01/12 09:18:33;;;;;;;20.58;5.53;;;4.60;99.90;;;;;;4917800;29;20096;-74
2024/01/12 09:20:58;;;;;;;19.27;4.00;;;4.60;99.90;;;;;;4900582;29;20812;-84
2024/01/12 09:23:24;;;;;;;26.02;3.78;;;4.60;99.90;;;;;;4917406;29;20052;-83
2024/01/12 09:25:52;;;;;;;20.58;4.22;;;4.60;99.90;;;;;;4917738;29;20044;-74
2024/01/12 09:28:18;;;;;;;28.63;4.45;;;4.60;99.90;;;;;;4918004;29;20058;-82
2024/01/12 09:30:44;;;;;;;31.00;3.63;;;4.60;99.90;;;;;;4900437;29;20485;-73
2024/01/12 09:33:10;;;;;;;17.23;3.78;;;4.60;99.90;;;;;;4917271;29;20523;-82
2024/01/12 09:35:35;;;;;;;14.70;3.00;;;4.60;99.90;;;;;;4917117;29;20059;-80
2024/01/12 09:38:01;;;;;;;35.50;4.70;;;4.60;99.90;;;;;;4900187;29;20758;-83
2024/01/12 09:40:27;;;;;;;14.90;3.00;;;4.60;99.90;;;;;;4884917;29;20060;-80
2024/01/12 09:42:57;;;;;;;21.63;3.83;;;4.70;99.90;;;;;;4917436;29;20131;-80
2024/01/12 09:45:25;;;;;;;23.65;4.22;;;4.70;99.90;;;;;;4917234;29;20064;-83
2024/01/12 09:47:51;;;;;;;21.02;3.53;;;4.70;99.90;;;;;;4885028;29;20445;-78
2024/01/12 09:50:21;;;;;;;30.45;4.82;;;4.70;99.90;;;;;;4917104;29;20496;-75
2024/01/12 09:52:48;;;;;;;22.98;3.45;;;4.80;99.90;;;;;;4885072;29;20067;-77
2024/01/12 09:55:14;;;;;;;19.05;3.35;;;4.80;99.90;;;;;;4900240;29;20592;-74
2024/01/12 09:57:41;;;;;;;18.77;3.60;;;4.80;99.90;;;;;;4917406;29;20040;-80
2024/01/12 10:00:08;;;;;;;20.02;4.20;;;4.80;99.90;;;;;;4917329;29;20533;-84
2024/01/12 10:02:34;;;;;;;15.32;3.75;;;4.80;99.90;;;;;;4900386;29;20059;-84
2024/01/12 10:05:00;;;;;;;23.85;3.75;;;4.80;99.90;;;;;;4900184;29;20056;-77
2024/01/12 10:07:27;;;;;;;24.95;4.15;;;4.80;99.90;;;;;;4899790;29;20408;-78
2024/01/12 10:09:53;;;;;;;22.42;3.45;;;4.90;99.90;;;;;;4917393;29;20453;-81
2024/01/12 10:12:18;;;;;;;23.48;4.00;;;4.80;99.90;;;;;;4898817;29;20052;-84
2024/01/12 10:14:44;;;;;;;23.92;4.28;;;4.90;99.90;;;;;;4899734;29;20079;-80
2024/01/12 10:17:11;;;;;;;23.58;4.18;;;4.80;99.90;;;;;;4900181;29;20127;-82
2024/01/12 10:19:36;;;;;;;28.35;4.32;;;4.90;99.90;;;;;;4900008;29;20071;-85
2024/01/12 10:22:03;;;;;;;29.63;5.90;;;4.80;99.90;;;;;;4917069;29;20052;-78
2024/01/12 10:24:30;;;;;;;21.60;3.60;;;4.90;99.90;;;;;;4916886;29;20100;-74
2024/01/12 10:27:02;;;;;;;25.92;4.35;;;4.90;99.90;;;;;;4916806;29;20151;-77
2024/01/12 10:29:27;;;;;;;33.22;4.53;;;4.90;99.90;;;;;;4916618;29;20096;-73
2024/01/12 10:31:53;;;;;;;30.40;4.60;;;4.90;99.90;;;;;;4916515;29;20143;-77
2024/01/12 10:34:21;;;;;;;19.98;3.80;;;4.90;99.90;;;;;;4899793;29;20510;-81
2024/01/12 10:36:51;;;;;;;23.35;4.38;;;5.00;99.90;;;;;;4916441;29;20059;-83
2024/01/12 10:39:19;;;;;;;21.38;3.63;;;4.90;99.90;;;;;;4899608;29;20059;-84
2024/01/12 10:41:46;;;;;;;26.27;5.95;;;5.00;99.90;;;;;;4916558;29;20052;-82
2024/01/12 10:44:15;;;;;;;22.75;3.92;;;5.00;99.90;;;;;;4916191;29;20056;-83
2024/01/12 10:46:49;;;;;;;23.02;3.03;;;5.00;99.90;;;;;;4899348;29;20519;-82
2024/01/12 10:49:25;;;;;;;20.50;3.50;;;5.20;99.90;;;;;;4899304;29;20493;-83
2024/01/12 10:52:12;;;;;;;15.18;3.67;;;5.10;99.90;;;;;;4916388;29;20397;-79
2024/01/12 10:54:49;;;;;;;26.80;5.68;;;5.20;99.90;;;;;;4916106;29;20063;-83
2024/01/12 10:57:16;;;;;;;30.90;3.95;;;5.20;99.90;;;;;;4915882;29;20519;-78
2024/01/12 10:59:44;;;;;;;23.25;2.97;;;5.20;99.90;;;;;;4898773;29;20289;-77
2024/01/12 11:02:12;;;;;;;23.23;4.03;;;5.20;99.90;;;;;;4916142;29;20088;-82
2024/01/12 11:04:40;;;;;;;20.90;3.92;;;5.30;99.90;;;;;;4916303;29;20382;-85
2024/01/12 11:07:06;;;;;;;24.20;3.83;;;5.20;99.90;;;;;;4915496;29;20428;-81
2024/01/12 11:09:32;;;;;;;32.47;5.03;;;5.20;99.90;;;;;;4898639;29;20060;-84
2024/01/12 11:12:33;;;;;;;22.05;4.22;;;5.20;99.90;;;;;;4915251;29;20062;-78
2024/01/12 11:14:59;;;;;;;30.58;5.60;;;5.20;99.90;;;;;;4915341;29;20055;-83
2024/01/12 11:17:34;;;;;;;21.38;4.00;;;5.20;99.90;;;;;;4899061;29;20048;-77
2024/01/12 11:20:10;;;;;;;;;;;5.20;99.90;;;;;;4898895;29;20176;-76
2024/01/12 11:22:44;;;;;;;20.00;2.67;;;5.30;99.90;;;;;;4915349;29;19927;-82
2024/01/12 11:25:12;;;;;;;17.37;3.10;;;5.30;99.90;;;;;;4915400;29;20052;-79
2024/01/12 11:27:39;;;;;;;28.50;3.35;;;5.30;99.90;;;;;;4915408;29;20781;-78
2024/01/12 11:30:06;;;;;;;18.38;3.08;;;5.30;99.90;;;;;;4915487;29;20488;-79
2024/01/12 11:32:32;;;;;;;14.63;3.38;;;5.30;99.90;;;;;;4915354;29;20102;-76
2024/01/12 11:35:19;;;;;;;23.92;3.58;;;5.30;99.90;;;;;;4915460;29;20063;-83
2024/01/12 11:38:05;;;;;;;31.17;4.13;;;5.30;99.90;;;;;;4915523;29;20079;-82
2024/01/12 11:40:32;;;;;;;20.23;4.10;;;5.20;99.90;;;;;;4914453;29;20051;-84
2024/01/12 11:42:59;;;;;;;28.95;4.22;;;5.20;99.90;;;;;;4915523;29;20770;-83
2024/01/12 11:45:25;;;;;;;22.70;4.57;;;5.20;99.90;;;;;;4897834;29;20512;-84
2024/01/12 11:47:51;;;;;;;22.30;4.60;;;5.20;99.90;;;;;;4898453;29;20111;-81
2024/01/12 11:50:17;;;;;;;31.40;4.32;;;5.30;99.90;;;;;;4915178;29;20501;-84
2024/01/12 11:52:58;;;;;;;20.63;5.10;;;5.30;99.90;;;;;;4882670;29;20603;-84
2024/01/12 11:55:24;;;;;;;25.15;4.32;;;5.40;99.90;;;;;;4897970;29;20139;-84
2024/01/12 11:57:52;;;;;;;22.48;3.65;;;5.40;99.90;;;;;;4917346;29;20056;-84
2024/01/12 12:00:19;;;;;;;21.48;5.63;;;5.40;99.90;;;;;;4914938;29;20040;-80
2024/01/12 12:02:45;;;;;;;23.27;3.40;;;5.40;99.90;;;;;;4898094;29;20099;-79
2024/01/12 12:05:11;;;;;;;17.60;3.17;;;5.40;99.90;;;;;;4898144;29;20056;-83
2024/01/12 12:07:38;;;;;;;25.92;4.55;;;5.40;99.90;;;;;;4914854;29;20167;-83
2024/01/12 12:10:05;;;;;;;23.33;3.47;;;5.40;99.90;;;;;;4915019;29;20147;-80
2024/01/12 12:12:31;;;;;;;23.63;3.75;;;5.40;99.90;;;;;;4914660;29;20501;-84
2024/01/12 12:15:08;;;;;;;17.25;3.30;;;5.40;99.90;;;;;;4914480;29;20063;-84
2024/01/12 12:17:38;;;;;;;28.77;4.22;;;5.40;99.90;;;;;;4915049;29;20059;-80
2024/01/12 12:20:05;;;;;;;30.20;5.97;;;5.40;99.90;;;;;;4914681;29;20064;-84
2024/01/12 12:22:31;;;;;;;25.50;4.18;;;5.30;99.90;;;;;;4914980;29;20056;-83
2024/01/12 12:24:57;;;;;;;14.00;4.13;;;5.30;99.90;;;;;;4914991;29;20063;-80
2024/01/12 12:27:23;;;;;;;18.88;3.15;;;5.30;99.90;;;;;;4915083;29;20044;-85
2024/01/12 12:29:50;;;;;;;22.77;2.60;;;5.40;99.90;;;;;;4914892;29;20063;-82
2024/01/12 12:32:15;;;;;;;15.90;3.47;;;5.40;99.90;;;;;;4914842;29;20099;-83
2024/01/12 12:34:45;;;;;;;16.63;1.98;;;5.40;99.90;;;;;;4899702;29;20496;-84
2024/01/12 12:37:16;;;;;;;18.40;2.80;;;5.40;99.90;;;;;;4902112;29;20051;-81
2024/01/12 12:39:42;;;;;;;18.70;2.55;;;5.40;99.90;;;;;;4901418;29;20143;-82
2024/01/12 12:42:11;;;;;;;20.80;2.53;;;5.40;99.90;;;;;;4918296;29;20047;-78
2024/01/12 12:44:36;;;;;;;20.30;2.97;;;5.50;99.90;;;;;;4901093;29;20056;-83